sensor_id;sensor_type;location;lat;lon;timestamp;temperature;humidity
18160;DHT22;9205;52.032;4.314;2023-05-07T00:00:23;14.70;99.90
18160;DHT22;9205;52.032;4.314;2023-05-07T00:02:51;14.60;99.90
18160;DHT22;9205;52.032;4.314;2023-05-07T00:05:18;14.70;99.90
18160;DHT22;9205;52.032;4.314;2023-05-07T00:07:46;14.50;99.90
18160;DHT22;9205;52.032;4.314;2023-05-07T00:10:14;14.50;99.90
18160;DHT22;9205;52.032;4.314;2023-05-07T00:12:41;14.50;99.90
18160;DHT22;9205;52.032;4.314;2023-05-07T00:15:09;14.70;99.90
18160;DHT22;9205;52.032;4.314;2023-05-07T00:17:37;14.70;99.90
18160;DHT22;9205;52.032;4.314;2023-05-07T00:20:05;14.80;99.90
18160;DHT22;9205;52.032;4.314;2023-05-07T00:22:33;14.80;99.90
18160;DHT22;9205;52.032;4.314;2023-05-07T00:25:00;14.80;99.90
18160;DHT22;9205;52.032;4.314;2023-05-07T00:27:29;14.80;99.90
18160;DHT22;9205;52.032;4.314;2023-05-07T00:29:56;14.60;99.90
18160;DHT22;9205;52.032;4.314;2023-05-07T00:32:23;14.50;99.90
18160;DHT22;9205;52.032;4.314;2023-05-07T00:34:50;14.50;99.90
18160;DHT22;9205;52.032;4.314;2023-05-07T00:37:18;14.80;99.90
18160;DHT22;9205;52.032;4.314;2023-05-07T00:39:45;14.60;99.90
18160;DHT22;9205;52.032;4.314;2023-05-07T00:42:12;14.70;99.90
18160;DHT22;9205;52.032;4.314;2023-05-07T00:44:42;14.50;99.90
18160;DHT22;9205;52.032;4.314;2023-05-07T00:47:09;14.50;99.90
18160;DHT22;9205;52.032;4.314;2023-05-07T00:49:39;14.70;99.90
18160;DHT22;9205;52.032;4.314;2023-05-07T00:52:09;14.70;99.90
18160;DHT22;9205;52.032;4.314;2023-05-07T00:54:40;14.40;99.90
18160;DHT22;9205;52.032;4.314;2023-05-07T00:57:09;14.50;99.90
18160;DHT22;9205;52.032;4.314;2023-05-07T00:59:38;14.70;99.90
18160;DHT22;9205;52.032;4.314;2023-05-07T01:02:07;14.70;99.90
18160;DHT22;9205;52.032;4.314;2023-05-07T01:04:35;14.70;99.90
18160;DHT22;9205;52.032;4.314;2023-05-07T01:07:02;14.80;99.90
18160;DHT22;9205;52.032;4.314;2023-05-07T01:09:31;14.70;99.90
18160;DHT22;9205;52.032;4.314;2023-05-07T01:12:01;14.30;99.90
18160;DHT22;9205;52.032;4.314;2023-05-07T01:14:28;14.70;99.90
18160;DHT22;9205;52.032;4.314;2023-05-07T01:16:56;14.80;99.90
18160;DHT22;9205;52.032;4.314;2023-05-07T01:19:26;14.80;99.90
18160;DHT22;9205;52.032;4.314;2023-05-07T01:22:01;14.70;99.90
18160;DHT22;9205;52.032;4.314;2023-05-07T01:24:43;14.40;99.90
18160;DHT22;9205;52.032;4.314;2023-05-07T01:27:12;14.30;99.90
18160;DHT22;9205;52.032;4.314;2023-05-07T01:29:40;14.60;99.90
18160;DHT22;9205;52.032;4.314;2023-05-07T01:32:07;14.50;99.90
18160;DHT22;9205;52.032;4.314;2023-05-07T01:34:36;14.30;99.90
18160;DHT22;9205;52.032;4.314;2023-05-07T01:37:04;14.60;99.90
18160;DHT22;9205;52.032;4.314;2023-05-07T01:39:32;14.40;99.90
18160;DHT22;9205;52.032;4.314;2023-05-07T01:42:02;14.60;99.90
18160;DHT22;9205;52.032;4.314;2023-05-07T01:44:30;14.50;99.90
18160;DHT22;9205;52.032;4.314;2023-05-07T01:46:57;14.50;99.90
18160;DHT22;9205;52.032;4.314;2023-05-07T01:49:25;14.50;99.90
18160;DHT22;9205;52.032;4.314;2023-05-07T01:51:53;14.30;99.90
18160;DHT22;9205;52.032;4.314;2023-05-07T01:54:25;14.50;99.90
18160;DHT22;9205;52.032;4.314;2023-05-07T01:56:55;14.50;99.90
18160;DHT22;9205;52.032;4.314;2023-05-07T01:59:25;14.40;99.90
18160;DHT22;9205;52.032;4.314;2023-05-07T02:01:52;14.30;99.90
18160;DHT22;9205;52.032;4.314;2023-05-07T02:04:19;14.30;99.90
18160;DHT22;9205;52.032;4.314;2023-05-07T02:06:46;14.50;99.90
18160;DHT22;9205;52.032;4.314;2023-05-07T02:09:15;14.50;99.90
18160;DHT22;9205;52.032;4.314;2023-05-07T02:11:44;14.20;99.90
18160;DHT22;9205;52.032;4.314;2023-05-07T02:14:12;14.50;99.90
18160;DHT22;9205;52.032;4.314;2023-05-07T02:16:41;14.20;99.90
18160;DHT22;9205;52.032;4.314;2023-05-07T02:19:10;14.20;99.90
18160;DHT22;9205;52.032;4.314;2023-05-07T02:21:37;14.30;99.90
18160;DHT22;9205;52.032;4.314;2023-05-07T02:24:05;14.50;99.90
18160;DHT22;9205;52.032;4.314;2023-05-07T02:26:32;14.30;99.90
18160;DHT22;9205;52.032;4.314;2023-05-07T02:29:00;14.50;99.90
18160;DHT22;9205;52.032;4.314;2023-05-07T02:31:27;14.20;99.90
18160;DHT22;9205;52.032;4.314;2023-05-07T02:33:56;14.30;99.90
18160;DHT22;9205;52.032;4.314;2023-05-07T02:36:23;14.40;99.90
18160;DHT22;9205;52.032;4.314;2023-05-07T02:39:01;14.20;99.90
18160;DHT22;9205;52.032;4.314;2023-05-07T02:41:28;14.60;99.90
18160;DHT22;9205;52.032;4.314;2023-05-07T02:43:55;14.40;99.90
18160;DHT22;9205;52.032;4.314;2023-05-07T02:46:23;14.50;99.90
18160;DHT22;9205;52.032;4.314;2023-05-07T02:48:59;14.50;99.90
18160;DHT22;9205;52.032;4.314;2023-05-07T02:51:26;14.40;99.90
18160;DHT22;9205;52.032;4.314;2023-05-07T02:53:55;14.30;99.90
18160;DHT22;9205;52.032;4.314;2023-05-07T02:56:26;14.50;99.90
18160;DHT22;9205;52.032;4.314;2023-05-07T02:58:53;14.40;99.90
18160;DHT22;9205;52.032;4.314;2023-05-07T03:01:23;14.40;99.90
18160;DHT22;9205;52.032;4.314;2023-05-07T03:03:58;14.30;99.90
18160;DHT22;9205;52.032;4.314;2023-05-07T03:06:26;14.60;99.90
18160;DHT22;9205;52.032;4.314;2023-05-07T03:08:53;14.30;99.90
18160;DHT22;9205;52.032;4.314;2023-05-07T03:11:20;14.40;99.90
18160;DHT22;9205;52.032;4.314;2023-05-07T03:13:47;14.30;99.90
18160;DHT22;9205;52.032;4.314;2023-05-07T03:16:17;14.40;99.90
18160;DHT22;9205;52.032;4.314;2023-05-07T03:18:44;14.40;99.90
18160;DHT22;9205;52.032;4.314;2023-05-07T03:21:12;14.60;99.90
18160;DHT22;9205;52.032;4.314;2023-05-07T03:23:40;14.70;99.90
18160;DHT22;9205;52.032;4.314;2023-05-07T03:26:07;14.30;99.90
18160;DHT22;9205;52.032;4.314;2023-05-07T03:28:35;14.50;99.90
18160;DHT22;9205;52.032;4.314;2023-05-07T03:31:06;14.40;99.90
18160;DHT22;9205;52.032;4.314;2023-05-07T03:33:34;14.50;99.90
18160;DHT22;9205;52.032;4.314;2023-05-07T03:36:01;14.40;99.90
18160;DHT22;9205;52.032;4.314;2023-05-07T03:38:30;14.70;99.90
18160;DHT22;9205;52.032;4.314;2023-05-07T03:40:57;14.30;99.90
18160;DHT22;9205;52.032;4.314;2023-05-07T03:43:25;14.40;99.90
18160;DHT22;9205;52.032;4.314;2023-05-07T03:46:00;14.70;99.90
18160;DHT22;9205;52.032;4.314;2023-05-07T03:48:28;14.70;99.90
18160;DHT22;9205;52.032;4.314;2023-05-07T03:50:58;14.70;99.90
18160;DHT22;9205;52.032;4.314;2023-05-07T03:53:31;14.60;99.90
18160;DHT22;9205;52.032;4.314;2023-05-07T03:55:59;14.60;99.90
18160;DHT22;9205;52.032;4.314;2023-05-07T03:58:27;14.70;99.90
18160;DHT22;9205;52.032;4.314;2023-05-07T04:00:58;14.30;99.90
18160;DHT22;9205;52.032;4.314;2023-05-07T04:03:28;14.50;99.90
18160;DHT22;9205;52.032;4.314;2023-05-07T04:05:58;14.60;99.90
18160;DHT22;9205;52.032;4.314;2023-05-07T04:08:26;14.80;99.90
18160;DHT22;9205;52.032;4.314;2023-05-07T04:10:58;14.40;99.90
18160;DHT22;9205;52.032;4.314;2023-05-07T04:13:29;14.70;99.90
18160;DHT22;9205;52.032;4.314;2023-05-07T04:15:58;14.50;99.90
18160;DHT22;9205;52.032;4.314;2023-05-07T04:18:26;14.40;99.90
18160;DHT22;9205;52.032;4.314;2023-05-07T04:20:53;14.50;99.90
18160;DHT22;9205;52.032;4.314;2023-05-07T04:23:21;14.60;99.90
18160;DHT22;9205;52.032;4.314;2023-05-07T04:25:48;14.60;99.90
18160;DHT22;9205;52.032;4.314;2023-05-07T04:28:23;14.70;99.90
18160;DHT22;9205;52.032;4.314;2023-05-07T04:30:50;14.80;99.90
18160;DHT22;9205;52.032;4.314;2023-05-07T04:33:19;14.40;99.90
18160;DHT22;9205;52.032;4.314;2023-05-07T04:35:47;14.70;99.90
18160;DHT22;9205;52.032;4.314;2023-05-07T04:38:14;14.70;99.90
18160;DHT22;9205;52.032;4.314;2023-05-07T04:40:42;14.80;99.90
18160;DHT22;9205;52.032;4.314;2023-05-07T04:43:14;14.50;99.90
18160;DHT22;9205;52.032;4.314;2023-05-07T04:45:49;14.50;99.90
18160;DHT22;9205;52.032;4.314;2023-05-07T04:48:17;14.80;99.90
18160;DHT22;9205;52.032;4.314;2023-05-07T04:50:47;14.50;99.90
18160;DHT22;9205;52.032;4.314;2023-05-07T04:53:15;14.90;99.90
18160;DHT22;9205;52.032;4.314;2023-05-07T04:55:43;14.80;99.90
18160;DHT22;9205;52.032;4.314;2023-05-07T04:58:10;14.70;99.90
18160;DHT22;9205;52.032;4.314;2023-05-07T05:00:39;14.60;99.90
18160;DHT22;9205;52.032;4.314;2023-05-07T05:03:09;14.70;99.90
18160;DHT22;9205;52.032;4.314;2023-05-07T05:05:38;14.90;99.90
18160;DHT22;9205;52.032;4.314;2023-05-07T05:08:05;14.90;99.90
18160;DHT22;9205;52.032;4.314;2023-05-07T05:10:38;14.80;99.90
18160;DHT22;9205;52.032;4.314;2023-05-07T05:13:06;14.50;99.90
18160;DHT22;9205;52.032;4.314;2023-05-07T05:15:34;14.60;99.90
18160;DHT22;9205;52.032;4.314;2023-05-07T05:18:02;14.60;99.90
18160;DHT22;9205;52.032;4.314;2023-05-07T05:20:31;14.90;99.90
18160;DHT22;9205;52.032;4.314;2023-05-07T05:22:58;14.90;99.90
18160;DHT22;9205;52.032;4.314;2023-05-07T05:25:26;14.90;99.90
18160;DHT22;9205;52.032;4.314;2023-05-07T05:27:54;14.70;99.90
18160;DHT22;9205;52.032;4.314;2023-05-07T05:30:23;14.80;99.90
18160;DHT22;9205;52.032;4.314;2023-05-07T05:32:50;14.70;99.90
18160;DHT22;9205;52.032;4.314;2023-05-07T05:35:17;15.00;99.90
18160;DHT22;9205;52.032;4.314;2023-05-07T05:37:46;14.80;99.90
18160;DHT22;9205;52.032;4.314;2023-05-07T05:40:15;14.70;99.90
18160;DHT22;9205;52.032;4.314;2023-05-07T05:42:42;14.70;99.90
18160;DHT22;9205;52.032;4.314;2023-05-07T05:45:10;14.70;99.90
18160;DHT22;9205;52.032;4.314;2023-05-07T05:47:38;15.00;99.90
18160;DHT22;9205;52.032;4.314;2023-05-07T05:50:07;14.90;99.90
18160;DHT22;9205;52.032;4.314;2023-05-07T05:52:35;15.20;99.90
18160;DHT22;9205;52.032;4.314;2023-05-07T05:55:04;14.90;99.90
18160;DHT22;9205;52.032;4.314;2023-05-07T05:57:32;14.80;99.90
18160;DHT22;9205;52.032;4.314;2023-05-07T06:00:00;14.90;99.90
18160;DHT22;9205;52.032;4.314;2023-05-07T06:02:32;15.20;99.90
18160;DHT22;9205;52.032;4.314;2023-05-07T06:04:59;15.10;99.90
18160;DHT22;9205;52.032;4.314;2023-05-07T06:07:26;15.30;99.90
18160;DHT22;9205;52.032;4.314;2023-05-07T06:09:54;14.90;99.90
18160;DHT22;9205;52.032;4.314;2023-05-07T06:12:23;15.40;99.90
18160;DHT22;9205;52.032;4.314;2023-05-07T06:14:50;15.20;99.90
18160;DHT22;9205;52.032;4.314;2023-05-07T06:17:18;15.10;99.90
18160;DHT22;9205;52.032;4.314;2023-05-07T06:19:45;15.00;99.90
18160;DHT22;9205;52.032;4.314;2023-05-07T06:22:14;15.20;99.90
18160;DHT22;9205;52.032;4.314;2023-05-07T06:24:41;15.40;99.90
18160;DHT22;9205;52.032;4.314;2023-05-07T06:27:08;15.50;99.90
18160;DHT22;9205;52.032;4.314;2023-05-07T06:29:37;15.30;99.90
18160;DHT22;9205;52.032;4.314;2023-05-07T06:32:12;15.20;99.90
18160;DHT22;9205;52.032;4.314;2023-05-07T06:34:42;15.20;99.90
18160;DHT22;9205;52.032;4.314;2023-05-07T06:37:10;15.60;99.90
18160;DHT22;9205;52.032;4.314;2023-05-07T06:39:56;15.60;99.90
18160;DHT22;9205;52.032;4.314;2023-05-07T06:42:23;15.40;99.90
18160;DHT22;9205;52.032;4.314;2023-05-07T06:44:57;15.30;99.90
18160;DHT22;9205;52.032;4.314;2023-05-07T06:47:25;15.80;99.90
18160;DHT22;9205;52.032;4.314;2023-05-07T06:49:54;15.80;99.90
18160;DHT22;9205;52.032;4.314;2023-05-07T06:52:25;15.60;99.90
18160;DHT22;9205;52.032;4.314;2023-05-07T06:54:53;15.90;99.90
18160;DHT22;9205;52.032;4.314;2023-05-07T06:57:23;15.50;99.90
18160;DHT22;9205;52.032;4.314;2023-05-07T06:59:51;16.00;99.90
18160;DHT22;9205;52.032;4.314;2023-05-07T07:02:21;15.70;99.90
18160;DHT22;9205;52.032;4.314;2023-05-07T07:04:49;15.70;99.90
18160;DHT22;9205;52.032;4.314;2023-05-07T07:07:16;15.80;99.90
18160;DHT22;9205;52.032;4.314;2023-05-07T07:09:45;15.90;99.90
18160;DHT22;9205;52.032;4.314;2023-05-07T07:12:16;16.10;99.90
18160;DHT22;9205;52.032;4.314;2023-05-07T07:14:43;16.30;99.90
18160;DHT22;9205;52.032;4.314;2023-05-07T07:17:12;16.10;99.90
18160;DHT22;9205;52.032;4.314;2023-05-07T07:19:40;16.30;99.90
18160;DHT22;9205;52.032;4.314;2023-05-07T07:22:08;16.40;99.90
18160;DHT22;9205;52.032;4.314;2023-05-07T07:24:36;16.50;99.90
18160;DHT22;9205;52.032;4.314;2023-05-07T07:27:06;16.20;99.90
18160;DHT22;9205;52.032;4.314;2023-05-07T07:29:34;16.50;99.90
18160;DHT22;9205;52.032;4.314;2023-05-07T07:32:02;16.50;99.90
18160;DHT22;9205;52.032;4.314;2023-05-07T07:34:29;16.30;99.90
18160;DHT22;9205;52.032;4.314;2023-05-07T07:36:58;16.40;99.90
18160;DHT22;9205;52.032;4.314;2023-05-07T07:39:31;16.20;99.90
18160;DHT22;9205;52.032;4.314;2023-05-07T07:41:58;16.60;99.90
18160;DHT22;9205;52.032;4.314;2023-05-07T07:44:28;16.40;99.90
18160;DHT22;9205;52.032;4.314;2023-05-07T07:46:59;16.40;99.90
18160;DHT22;9205;52.032;4.314;2023-05-07T07:49:27;16.70;99.90
18160;DHT22;9205;52.032;4.314;2023-05-07T07:51:58;16.80;99.90
18160;DHT22;9205;52.032;4.314;2023-05-07T07:54:26;16.80;99.90
18160;DHT22;9205;52.032;4.314;2023-05-07T07:56:54;16.80;99.90
18160;DHT22;9205;52.032;4.314;2023-05-07T07:59:22;16.90;99.90
18160;DHT22;9205;52.032;4.314;2023-05-07T08:01:50;16.70;99.90
18160;DHT22;9205;52.032;4.314;2023-05-07T08:04:19;16.70;99.90
18160;DHT22;9205;52.032;4.314;2023-05-07T08:06:46;16.80;99.90
18160;DHT22;9205;52.032;4.314;2023-05-07T08:09:15;16.80;99.90
18160;DHT22;9205;52.032;4.314;2023-05-07T08:11:42;16.80;99.90
18160;DHT22;9205;52.032;4.314;2023-05-07T08:14:10;16.90;99.90
18160;DHT22;9205;52.032;4.314;2023-05-07T08:16:38;16.70;99.90
18160;DHT22;9205;52.032;4.314;2023-05-07T08:19:06;16.80;99.90
18160;DHT22;9205;52.032;4.314;2023-05-07T08:21:34;16.70;99.90
18160;DHT22;9205;52.032;4.314;2023-05-07T08:24:05;16.80;99.90
18160;DHT22;9205;52.032;4.314;2023-05-07T08:26:34;17.20;99.90
18160;DHT22;9205;52.032;4.314;2023-05-07T08:29:02;17.20;99.90
18160;DHT22;9205;52.032;4.314;2023-05-07T08:31:29;17.10;99.90
18160;DHT22;9205;52.032;4.314;2023-05-07T08:33:57;17.10;99.90
18160;DHT22;9205;52.032;4.314;2023-05-07T08:36:25;17.00;99.90
18160;DHT22;9205;52.032;4.314;2023-05-07T08:38:52;17.10;99.90
18160;DHT22;9205;52.032;4.314;2023-05-07T08:41:21;17.30;99.90
18160;DHT22;9205;52.032;4.314;2023-05-07T08:43:50;17.10;99.90
18160;DHT22;9205;52.032;4.314;2023-05-07T08:46:21;17.50;99.90
18160;DHT22;9205;52.032;4.314;2023-05-07T08:48:52;17.30;99.90
18160;DHT22;9205;52.032;4.314;2023-05-07T08:51:21;17.60;99.90
18160;DHT22;9205;52.032;4.314;2023-05-07T08:53:49;17.80;99.90
18160;DHT22;9205;52.032;4.314;2023-05-07T08:56:28;17.70;99.90
18160;DHT22;9205;52.032;4.314;2023-05-07T08:58:57;17.80;99.90
18160;DHT22;9205;52.032;4.314;2023-05-07T09:01:26;17.60;99.90
18160;DHT22;9205;52.032;4.314;2023-05-07T09:03:55;17.80;99.90
18160;DHT22;9205;52.032;4.314;2023-05-07T09:06:23;18.10;99.90
18160;DHT22;9205;52.032;4.314;2023-05-07T09:08:51;18.20;99.90
18160;DHT22;9205;52.032;4.314;2023-05-07T09:11:23;18.10;99.90
18160;DHT22;9205;52.032;4.314;2023-05-07T09:13:54;18.20;99.90
18160;DHT22;9205;52.032;4.314;2023-05-07T09:16:25;18.30;99.90
18160;DHT22;9205;52.032;4.314;2023-05-07T09:18:54;18.20;99.90
18160;DHT22;9205;52.032;4.314;2023-05-07T09:21:22;18.30;99.90
18160;DHT22;9205;52.032;4.314;2023-05-07T09:23:52;18.30;99.90
18160;DHT22;9205;52.032;4.314;2023-05-07T09:26:23;18.40;99.90
18160;DHT22;9205;52.032;4.314;2023-05-07T09:28:51;18.40;99.90
18160;DHT22;9205;52.032;4.314;2023-05-07T09:31:20;18.30;80.40
18160;DHT22;9205;52.032;4.314;2023-05-07T09:33:52;18.40;34.80
18160;DHT22;9205;52.032;4.314;2023-05-07T09:36:22;18.40;24.30
18160;DHT22;9205;52.032;4.314;2023-05-07T09:38:50;18.50;24.80
18160;DHT22;9205;52.032;4.314;2023-05-07T09:41:17;18.50;1.00
18160;DHT22;9205;52.032;4.314;2023-05-07T09:43:59;18.50;6.50
18160;DHT22;9205;52.032;4.314;2023-05-07T09:46:39;18.70;34.00
18160;DHT22;9205;52.032;4.314;2023-05-07T09:49:21;18.50;25.70
18160;DHT22;9205;52.032;4.314;2023-05-07T09:51:58;18.50;15.10
18160;DHT22;9205;52.032;4.314;2023-05-07T09:54:29;18.50;4.10
18160;DHT22;9205;52.032;4.314;2023-05-07T09:56:58;18.60;22.60
18160;DHT22;9205;52.032;4.314;2023-05-07T09:59:31;18.50;9.80
18160;DHT22;9205;52.032;4.314;2023-05-07T10:02:03;18.70;9.70
18160;DHT22;9205;52.032;4.314;2023-05-07T10:04:38;18.80;16.30
18160;DHT22;9205;52.032;4.314;2023-05-07T10:07:07;18.70;1.00
18160;DHT22;9205;52.032;4.314;2023-05-07T10:09:36;18.90;1.00
18160;DHT22;9205;52.032;4.314;2023-05-07T10:12:11;19.10;1.00
18160;DHT22;9205;52.032;4.314;2023-05-07T10:14:39;19.00;1.00
18160;DHT22;9205;52.032;4.314;2023-05-07T10:17:08;19.10;1.00
18160;DHT22;9205;52.032;4.314;2023-05-07T10:19:40;19.00;1.00
18160;DHT22;9205;52.032;4.314;2023-05-07T10:22:09;19.30;1.00
18160;DHT22;9205;52.032;4.314;2023-05-07T10:24:42;19.20;1.00
18160;DHT22;9205;52.032;4.314;2023-05-07T10:27:16;19.20;1.00
18160;DHT22;9205;52.032;4.314;2023-05-07T10:29:59;19.10;1.00
18160;DHT22;9205;52.032;4.314;2023-05-07T10:32:43;19.20;1.00
18160;DHT22;9205;52.032;4.314;2023-05-07T10:35:25;19.10;1.00
18160;DHT22;9205;52.032;4.314;2023-05-07T10:37:57;19.10;1.00
18160;DHT22;9205;52.032;4.314;2023-05-07T10:40:27;19.20;1.00
18160;DHT22;9205;52.032;4.314;2023-05-07T10:42:55;19.20;1.00
18160;DHT22;9205;52.032;4.314;2023-05-07T10:45:26;19.00;1.00
18160;DHT22;9205;52.032;4.314;2023-05-07T10:48:07;19.00;1.00
18160;DHT22;9205;52.032;4.314;2023-05-07T10:50:39;19.00;1.00
18160;DHT22;9205;52.032;4.314;2023-05-07T10:53:24;19.20;1.00
18160;DHT22;9205;52.032;4.314;2023-05-07T10:56:26;19.10;1.00
18160;DHT22;9205;52.032;4.314;2023-05-07T10:59:31;19.20;1.00
18160;DHT22;9205;52.032;4.314;2023-05-07T11:02:15;19.20;1.00
18160;DHT22;9205;52.032;4.314;2023-05-07T11:05:19;19.10;1.00
18160;DHT22;9205;52.032;4.314;2023-05-07T11:07:56;19.20;1.00
18160;DHT22;9205;52.032;4.314;2023-05-07T11:10:54;19.20;1.00
18160;DHT22;9205;52.032;4.314;2023-05-07T11:13:47;19.30;1.00
18160;DHT22;9205;52.032;4.314;2023-05-07T11:16:41;19.50;1.00
18160;DHT22;9205;52.032;4.314;2023-05-07T11:19:17;19.40;1.00
18160;DHT22;9205;52.032;4.314;2023-05-07T11:22:46;19.40;1.00
18160;DHT22;9205;52.032;4.314;2023-05-07T11:25:24;19.70;1.00
18160;DHT22;9205;52.032;4.314;2023-05-07T11:28:05;19.40;1.00
18160;DHT22;9205;52.032;4.314;2023-05-07T11:30:36;19.00;1.00
18160;DHT22;9205;52.032;4.314;2023-05-07T11:33:06;18.70;1.00
18160;DHT22;9205;52.032;4.314;2023-05-07T11:35:34;18.70;1.00
18160;DHT22;9205;52.032;4.314;2023-05-07T11:38:01;18.70;1.00
18160;DHT22;9205;52.032;4.314;2023-05-07T11:40:33;18.80;1.00
18160;DHT22;9205;52.032;4.314;2023-05-07T11:43:10;18.70;1.00
18160;DHT22;9205;52.032;4.314;2023-05-07T11:45:37;18.80;1.00
18160;DHT22;9205;52.032;4.314;2023-05-07T11:48:05;18.80;1.00
18160;DHT22;9205;52.032;4.314;2023-05-07T11:50:32;19.00;1.00
18160;DHT22;9205;52.032;4.314;2023-05-07T11:53:00;18.90;1.00
18160;DHT22;9205;52.032;4.314;2023-05-07T11:55:27;18.70;1.00
18160;DHT22;9205;52.032;4.314;2023-05-07T11:57:56;18.50;1.00
18160;DHT22;9205;52.032;4.314;2023-05-07T12:00:23;18.40;1.00
18160;DHT22;9205;52.032;4.314;2023-05-07T12:02:50;18.30;1.00
18160;DHT22;9205;52.032;4.314;2023-05-07T12:05:18;18.30;1.00
18160;DHT22;9205;52.032;4.314;2023-05-07T12:07:45;18.30;1.00
18160;DHT22;9205;52.032;4.314;2023-05-07T12:10:12;18.20;1.00
18160;DHT22;9205;52.032;4.314;2023-05-07T12:12:40;18.20;1.00
18160;DHT22;9205;52.032;4.314;2023-05-07T12:15:10;18.30;14.20
18160;DHT22;9205;52.032;4.314;2023-05-07T12:17:37;18.30;31.60
18160;DHT22;9205;52.032;4.314;2023-05-07T12:20:06;18.20;18.90
18160;DHT22;9205;52.032;4.314;2023-05-07T12:22:35;18.10;16.20
18160;DHT22;9205;52.032;4.314;2023-05-07T12:25:03;18.20;1.00
18160;DHT22;9205;52.032;4.314;2023-05-07T12:27:32;18.30;9.20
18160;DHT22;9205;52.032;4.314;2023-05-07T12:30:04;18.20;1.00
18160;DHT22;9205;52.032;4.314;2023-05-07T12:32:33;18.40;1.00
18160;DHT22;9205;52.032;4.314;2023-05-07T12:35:02;18.40;1.00
18160;DHT22;9205;52.032;4.314;2023-05-07T12:37:32;18.40;1.00
18160;DHT22;9205;52.032;4.314;2023-05-07T12:40:06;18.40;1.00
18160;DHT22;9205;52.032;4.314;2023-05-07T12:42:37;18.10;1.00
18160;DHT22;9205;52.032;4.314;2023-05-07T12:45:09;18.10;1.00
18160;DHT22;9205;52.032;4.314;2023-05-07T12:47:38;18.00;1.00
18160;DHT22;9205;52.032;4.314;2023-05-07T12:50:06;17.90;2.10
18160;DHT22;9205;52.032;4.314;2023-05-07T12:52:34;17.80;36.10
18160;DHT22;9205;52.032;4.314;2023-05-07T12:55:07;18.10;94.60
18160;DHT22;9205;52.032;4.314;2023-05-07T12:57:38;18.00;99.90
18160;DHT22;9205;52.032;4.314;2023-05-07T13:00:07;17.90;99.90
18160;DHT22;9205;52.032;4.314;2023-05-07T13:02:40;18.00;99.90
18160;DHT22;9205;52.032;4.314;2023-05-07T13:05:10;17.90;99.90
18160;DHT22;9205;52.032;4.314;2023-05-07T13:07:37;17.70;99.90
18160;DHT22;9205;52.032;4.314;2023-05-07T13:10:06;17.70;99.90
18160;DHT22;9205;52.032;4.314;2023-05-07T13:12:33;17.80;99.90
18160;DHT22;9205;52.032;4.314;2023-05-07T13:15:01;17.60;99.90
18160;DHT22;9205;52.032;4.314;2023-05-07T13:17:28;18.00;99.90
18160;DHT22;9205;52.032;4.314;2023-05-07T13:19:58;18.00;99.90
18160;DHT22;9205;52.032;4.314;2023-05-07T13:22:25;18.10;99.90
18160;DHT22;9205;52.032;4.314;2023-05-07T13:24:52;18.30;99.90
18160;DHT22;9205;52.032;4.314;2023-05-07T13:27:20;18.30;99.90
18160;DHT22;9205;52.032;4.314;2023-05-07T13:29:47;18.40;99.90
18160;DHT22;9205;52.032;4.314;2023-05-07T13:32:14;18.60;99.90
18160;DHT22;9205;52.032;4.314;2023-05-07T13:34:42;18.60;99.90
18160;DHT22;9205;52.032;4.314;2023-05-07T13:37:10;18.70;99.90
18160;DHT22;9205;52.032;4.314;2023-05-07T13:39:37;18.80;99.90
18160;DHT22;9205;52.032;4.314;2023-05-07T13:42:04;19.00;99.90
18160;DHT22;9205;52.032;4.314;2023-05-07T13:44:32;19.20;99.60
18160;DHT22;9205;52.032;4.314;2023-05-07T13:46:59;19.30;74.00
18160;DHT22;9205;52.032;4.314;2023-05-07T13:49:26;19.30;11.60
18160;DHT22;9205;52.032;4.314;2023-05-07T13:51:55;19.50;1.00
18160;DHT22;9205;52.032;4.314;2023-05-07T13:54:24;19.50;1.00
18160;DHT22;9205;52.032;4.314;2023-05-07T13:56:51;19.40;1.00
18160;DHT22;9205;52.032;4.314;2023-05-07T13:59:18;19.20;1.00
18160;DHT22;9205;52.032;4.314;2023-05-07T14:01:46;19.30;1.00
18160;DHT22;9205;52.032;4.314;2023-05-07T14:04:13;19.20;1.00
18160;DHT22;9205;52.032;4.314;2023-05-07T14:06:40;19.30;1.00
18160;DHT22;9205;52.032;4.314;2023-05-07T14:09:08;19.30;1.00
18160;DHT22;9205;52.032;4.314;2023-05-07T14:11:39;19.30;1.00
18160;DHT22;9205;52.032;4.314;2023-05-07T14:14:06;19.20;1.00
18160;DHT22;9205;52.032;4.314;2023-05-07T14:16:36;19.00;1.00
18160;DHT22;9205;52.032;4.314;2023-05-07T14:19:03;18.90;1.00
18160;DHT22;9205;52.032;4.314;2023-05-07T14:21:31;18.90;1.00
18160;DHT22;9205;52.032;4.314;2023-05-07T14:23:58;18.60;1.00
18160;DHT22;9205;52.032;4.314;2023-05-07T14:26:25;18.60;1.00
18160;DHT22;9205;52.032;4.314;2023-05-07T14:28:55;18.60;1.00
18160;DHT22;9205;52.032;4.314;2023-05-07T14:31:24;18.50;1.00
18160;DHT22;9205;52.032;4.314;2023-05-07T14:33:51;18.60;1.00
18160;DHT22;9205;52.032;4.314;2023-05-07T14:36:19;18.70;1.00
18160;DHT22;9205;52.032;4.314;2023-05-07T14:38:48;18.50;1.00
18160;DHT22;9205;52.032;4.314;2023-05-07T14:41:16;18.60;1.00
18160;DHT22;9205;52.032;4.314;2023-05-07T14:43:43;18.60;1.00
18160;DHT22;9205;52.032;4.314;2023-05-07T14:46:17;18.60;1.00
18160;DHT22;9205;52.032;4.314;2023-05-07T14:48:45;18.70;1.00
18160;DHT22;9205;52.032;4.314;2023-05-07T14:51:13;18.80;1.00
18160;DHT22;9205;52.032;4.314;2023-05-07T14:53:41;18.80;1.00
18160;DHT22;9205;52.032;4.314;2023-05-07T14:56:09;18.90;1.00
18160;DHT22;9205;52.032;4.314;2023-05-07T14:58:36;18.90;1.00
18160;DHT22;9205;52.032;4.314;2023-05-07T15:01:04;18.80;1.00
18160;DHT22;9205;52.032;4.314;2023-05-07T15:03:33;18.90;1.00
18160;DHT22;9205;52.032;4.314;2023-05-07T15:06:01;18.80;1.00
18160;DHT22;9205;52.032;4.314;2023-05-07T15:08:29;18.70;1.00
18160;DHT22;9205;52.032;4.314;2023-05-07T15:10:59;18.70;1.00
18160;DHT22;9205;52.032;4.314;2023-05-07T15:13:26;18.70;1.00
18160;DHT22;9205;52.032;4.314;2023-05-07T15:15:54;18.60;1.00
18160;DHT22;9205;52.032;4.314;2023-05-07T15:18:21;18.50;1.00
18160;DHT22;9205;52.032;4.314;2023-05-07T15:20:50;18.40;1.00
18160;DHT22;9205;52.032;4.314;2023-05-07T15:23:17;18.50;1.00
18160;DHT22;9205;52.032;4.314;2023-05-07T15:25:47;18.40;1.00
18160;DHT22;9205;52.032;4.314;2023-05-07T15:28:14;18.40;1.00
18160;DHT22;9205;52.032;4.314;2023-05-07T15:30:42;18.30;1.00
18160;DHT22;9205;52.032;4.314;2023-05-07T15:33:09;18.30;1.00
18160;DHT22;9205;52.032;4.314;2023-05-07T15:35:36;18.20;1.00
18160;DHT22;9205;52.032;4.314;2023-05-07T15:38:05;18.10;1.00
18160;DHT22;9205;52.032;4.314;2023-05-07T15:40:34;18.20;1.00
18160;DHT22;9205;52.032;4.314;2023-05-07T15:43:03;18.20;1.00
18160;DHT22;9205;52.032;4.314;2023-05-07T15:45:30;18.20;1.00
18160;DHT22;9205;52.032;4.314;2023-05-07T15:47:57;18.20;1.00
18160;DHT22;9205;52.032;4.314;2023-05-07T15:50:25;18.10;1.00
18160;DHT22;9205;52.032;4.314;2023-05-07T15:52:52;18.10;1.00
18160;DHT22;9205;52.032;4.314;2023-05-07T15:55:21;17.90;1.00
18160;DHT22;9205;52.032;4.314;2023-05-07T15:57:48;18.00;1.00
18160;DHT22;9205;52.032;4.314;2023-05-07T16:00:16;18.00;1.00
18160;DHT22;9205;52.032;4.314;2023-05-07T16:02:44;18.00;1.00
18160;DHT22;9205;52.032;4.314;2023-05-07T16:05:11;18.00;1.00